sensor_id;sensor_type;location;lat;lon;timestamp;pressure;altitude;pressure_sealevel;temperature;humidity
21361;BME280;10839;43.206;23.550;2023-05-23T00:00:54;96997.59;;;15.25;100.00
21361;BME280;10839;43.206;23.550;2023-05-23T00:03:23;96987.66;;;15.19;100.00
21361;BME280;10839;43.206;23.550;2023-05-23T00:05:49;96993.34;;;15.29;100.00
21361;BME280;10839;43.206;23.550;2023-05-23T00:08:16;96994.66;;;15.26;100.00
21361;BME280;10839;43.206;23.550;2023-05-23T00:10:42;96989.25;;;15.26;100.00
21361;BME280;10839;43.206;23.550;2023-05-23T00:13:24;96994.28;;;15.23;100.00
21361;BME280;10839;43.206;23.550;2023-05-23T00:15:51;96994.38;;;15.16;100.00
21361;BME280;10839;43.206;23.550;2023-05-23T00:18:17;96987.00;;;15.23;100.00
21361;BME280;10839;43.206;23.550;2023-05-23T00:20:43;97000.25;;;15.13;100.00
21361;BME280;10839;43.206;23.550;2023-05-23T00:23:10;96998.88;;;15.22;100.00
21361;BME280;10839;43.206;23.550;2023-05-23T00:25:46;96987.72;;;15.12;100.00
21361;BME280;10839;43.206;23.550;2023-05-23T00:28:17;96988.50;;;15.19;100.00
21361;BME280;10839;43.206;23.550;2023-05-23T00:30:43;96994.38;;;15.16;100.00
21361;BME280;10839;43.206;23.550;2023-05-23T00:33:09;96986.56;;;15.08;100.00
21361;BME280;10839;43.206;23.550;2023-05-23T00:35:35;96984.44;;;15.10;100.00
21361;BME280;10839;43.206;23.550;2023-05-23T00:38:00;96999.66;;;15.11;100.00
21361;BME280;10839;43.206;23.550;2023-05-23T00:40:26;96993.91;;;15.19;100.00
21361;BME280;10839;43.206;23.550;2023-05-23T00:42:52;96987.34;;;15.09;100.00
21361;BME280;10839;43.206;23.550;2023-05-23T00:45:18;96996.63;;;15.01;100.00
21361;BME280;10839;43.206;23.550;2023-05-23T00:47:45;96997.56;;;14.95;100.00
21361;BME280;10839;43.206;23.550;2023-05-23T00:50:13;96981.44;;;15.00;100.00
21361;BME280;10839;43.206;23.550;2023-05-23T00:52:42;96976.31;;;14.92;100.00
21361;BME280;10839;43.206;23.550;2023-05-23T00:55:09;96984.00;;;14.95;100.00
21361;BME280;10839;43.206;23.550;2023-05-23T00:57:36;96990.75;;;15.04;100.00
21361;BME280;10839;43.206;23.550;2023-05-23T01:00:07;96984.56;;;15.15;100.00
21361;BME280;10839;43.206;23.550;2023-05-23T01:02:38;96978.28;;;15.03;100.00
21361;BME280;10839;43.206;23.550;2023-05-23T01:05:06;96977.44;;;15.03;100.00
21361;BME280;10839;43.206;23.550;2023-05-23T01:07:32;96989.56;;;15.00;100.00
21361;BME280;10839;43.206;23.550;2023-05-23T01:09:58;96967.38;;;14.92;100.00
21361;BME280;10839;43.206;23.550;2023-05-23T01:15:09;96977.97;;;14.93;100.00
21361;BME280;10839;43.206;23.550;2023-05-23T01:20:25;96974.13;;;15.01;100.00
21361;BME280;10839;43.206;23.550;2023-05-23T01:22:58;96984.56;;;14.97;100.00
21361;BME280;10839;43.206;23.550;2023-05-23T01:28:31;96971.03;;;14.79;100.00
21361;BME280;10839;43.206;23.550;2023-05-23T01:31:01;96985.72;;;14.72;100.00
21361;BME280;10839;43.206;23.550;2023-05-23T01:33:30;96973.13;;;14.77;100.00
21361;BME280;10839;43.206;23.550;2023-05-23T01:36:00;96958.84;;;14.88;100.00
21361;BME280;10839;43.206;23.550;2023-05-23T01:38:27;96961.25;;;14.96;100.00
21361;BME280;10839;43.206;23.550;2023-05-23T01:40:53;96944.03;;;14.91;100.00
21361;BME280;10839;43.206;23.550;2023-05-23T01:43:19;96958.31;;;14.98;100.00
21361;BME280;10839;43.206;23.550;2023-05-23T01:45:46;96960.97;;;14.86;100.00
21361;BME280;10839;43.206;23.550;2023-05-23T01:48:13;96969.25;;;14.91;100.00
21361;BME280;10839;43.206;23.550;2023-05-23T01:50:41;96967.75;;;14.95;100.00
21361;BME280;10839;43.206;23.550;2023-05-23T01:53:14;96966.47;;;14.80;100.00
21361;BME280;10839;43.206;23.550;2023-05-23T01:55:41;96959.75;;;14.82;100.00
21361;BME280;10839;43.206;23.550;2023-05-23T01:58:08;96961.34;;;14.90;100.00
21361;BME280;10839;43.206;23.550;2023-05-23T02:00:34;96962.00;;;15.03;100.00
21361;BME280;10839;43.206;23.550;2023-05-23T02:03:01;96965.75;;;15.02;100.00
21361;BME280;10839;43.206;23.550;2023-05-23T02:05:28;96968.25;;;15.04;100.00
21361;BME280;10839;43.206;23.550;2023-05-23T02:07:53;96964.66;;;14.92;100.00
21361;BME280;10839;43.206;23.550;2023-05-23T02:10:19;96960.66;;;14.94;100.00
21361;BME280;10839;43.206;23.550;2023-05-23T02:12:45;96969.25;;;14.91;100.00
21361;BME280;10839;43.206;23.550;2023-05-23T02:15:11;96965.69;;;14.91;100.00
21361;BME280;10839;43.206;23.550;2023-05-23T02:17:37;96969.41;;;14.78;100.00
21361;BME280;10839;43.206;23.550;2023-05-23T02:20:06;96961.03;;;14.80;100.00
21361;BME280;10839;43.206;23.550;2023-05-23T02:22:32;96968.63;;;14.71;100.00
21361;BME280;10839;43.206;23.550;2023-05-23T02:24:58;96970.28;;;14.72;100.00
21361;BME280;10839;43.206;23.550;2023-05-23T02:27:24;96961.03;;;14.80;100.00
21361;BME280;10839;43.206;23.550;2023-05-23T02:29:49;96960.19;;;14.79;100.00
21361;BME280;10839;43.206;23.550;2023-05-23T02:32:16;96961.88;;;14.80;100.00
21361;BME280;10839;43.206;23.550;2023-05-23T02:34:41;96965.94;;;14.71;100.00
21361;BME280;10839;43.206;23.550;2023-05-23T02:37:14;96966.84;;;14.83;100.00
21361;BME280;10839;43.206;23.550;2023-05-23T02:39:42;96969.84;;;14.93;100.00
21361;BME280;10839;43.206;23.550;2023-05-23T02:42:08;96970.31;;;14.90;100.00
21361;BME280;10839;43.206;23.550;2023-05-23T02:44:34;96960.03;;;14.92;100.00
21361;BME280;10839;43.206;23.550;2023-05-23T02:47:00;96969.78;;;14.82;100.00
21361;BME280;10839;43.206;23.550;2023-05-23T02:49:26;96965.63;;;14.79;100.00
21361;BME280;10839;43.206;23.550;2023-05-23T02:51:52;96960.19;;;14.79;100.00
21361;BME280;10839;43.206;23.550;2023-05-23T02:54:18;96971.34;;;14.71;100.00
21361;BME280;10839;43.206;23.550;2023-05-23T02:56:44;96968.63;;;14.71;100.00
21361;BME280;10839;43.206;23.550;2023-05-23T02:59:15;96973.00;;;14.72;100.00
21361;BME280;10839;43.206;23.550;2023-05-23T03:01:42;96963.69;;;14.68;100.00
21361;BME280;10839;43.206;23.550;2023-05-23T03:04:08;96979.94;;;14.86;100.00
21361;BME280;10839;43.206;23.550;2023-05-23T03:06:34;96973.59;;;14.74;100.00
21361;BME280;10839;43.206;23.550;2023-05-23T03:09:01;96980.06;;;14.91;100.00
21361;BME280;10839;43.206;23.550;2023-05-23T03:11:28;96975.25;;;14.93;100.00
21361;BME280;10839;43.206;23.550;2023-05-23T03:13:54;96974.34;;;14.81;100.00
21361;BME280;10839;43.206;23.550;2023-05-23T03:16:21;96985.03;;;14.76;100.00
21361;BME280;10839;43.206;23.550;2023-05-23T03:18:48;96990.16;;;15.02;100.00
21361;BME280;10839;43.206;23.550;2023-05-23T03:21:14;96979.16;;;15.33;100.00
21361;BME280;10839;43.206;23.550;2023-05-23T03:23:40;96977.81;;;15.06;100.00
21361;BME280;10839;43.206;23.550;2023-05-23T03:26:06;96978.09;;;15.16;100.00
21361;BME280;10839;43.206;23.550;2023-05-23T03:28:32;96974.91;;;15.37;100.00
21361;BME280;10839;43.206;23.550;2023-05-23T03:30:58;96969.59;;;15.61;100.00
21361;BME280;10839;43.206;23.550;2023-05-23T03:33:24;96979.28;;;16.09;100.00
21361;BME280;10839;43.206;23.550;2023-05-23T03:35:51;96967.78;;;16.60;100.00
21361;BME280;10839;43.206;23.550;2023-05-23T03:38:18;96984.63;;;16.85;100.00
21361;BME280;10839;43.206;23.550;2023-05-23T03:40:44;96984.88;;;16.72;100.00
21361;BME280;10839;43.206;23.550;2023-05-23T03:43:10;96988.38;;;16.15;100.00
21361;BME280;10839;43.206;23.550;2023-05-23T03:45:39;96982.84;;;16.21;100.00
21361;BME280;10839;43.206;23.550;2023-05-23T03:48:10;96987.78;;;16.01;100.00
21361;BME280;10839;43.206;23.550;2023-05-23T03:50:38;96987.63;;;15.85;100.00
21361;BME280;10839;43.206;23.550;2023-05-23T03:53:05;96993.78;;;15.92;100.00
21361;BME280;10839;43.206;23.550;2023-05-23T03:55:31;96988.09;;;15.82;100.00
21361;BME280;10839;43.206;23.550;2023-05-23T03:57:57;96983.72;;;15.92;100.00
21361;BME280;10839;43.206;23.550;2023-05-23T04:00:24;96992.38;;;16.01;100.00
21361;BME280;10839;43.206;23.550;2023-05-23T04:02:50;96987.88;;;15.95;100.00
21361;BME280;10839;43.206;23.550;2023-05-23T04:05:19;96986.72;;;16.14;100.00
21361;BME280;10839;43.206;23.550;2023-05-23T04:07:46;96996.78;;;16.13;100.00
21361;BME280;10839;43.206;23.550;2023-05-23T04:10:13;96996.50;;;16.03;100.00
21361;BME280;10839;43.206;23.550;2023-05-23T04:12:39;96992.03;;;16.09;100.00
21361;BME280;10839;43.206;23.550;2023-05-23T04:15:14;97003.38;;;16.29;100.00
21361;BME280;10839;43.206;23.550;2023-05-23T04:17:51;97002.47;;;16.23;100.00
21361;BME280;10839;43.206;23.550;2023-05-23T04:20:17;97012.72;;;16.33;100.00
21361;BME280;10839;43.206;23.550;2023-05-23T04:22:42;97011.66;;;16.22;100.00
21361;BME280;10839;43.206;23.550;2023-05-23T04:25:09;97011.19;;;16.37;100.00
21361;BME280;10839;43.206;23.550;2023-05-23T04:27:42;97019.44;;;16.19;100.00
21361;BME280;10839;43.206;23.550;2023-05-23T04:30:10;97035.47;;;16.50;100.00
21361;BME280;10839;43.206;23.550;2023-05-23T04:32:38;97049.97;;;16.03;100.00
21361;BME280;10839;43.206;23.550;2023-05-23T04:35:05;97041.69;;;15.98;100.00
21361;BME280;10839;43.206;23.550;2023-05-23T04:37:32;97051.31;;;16.12;100.00
21361;BME280;10839;43.206;23.550;2023-05-23T04:39:58;97040.56;;;16.81;100.00
21361;BME280;10839;43.206;23.550;2023-05-23T04:42:43;97039.94;;;17.02;100.00
21361;BME280;10839;43.206;23.550;2023-05-23T04:45:35;97048.88;;;17.37;100.00
21361;BME280;10839;43.206;23.550;2023-05-23T04:48:16;97046.31;;;17.99;100.00
21361;BME280;10839;43.206;23.550;2023-05-23T04:50:43;97046.63;;;17.85;100.00
21361;BME280;10839;43.206;23.550;2023-05-23T04:53:12;97055.34;;;18.44;100.00
21361;BME280;10839;43.206;23.550;2023-05-23T04:55:39;97049.84;;;19.10;100.00
21361;BME280;10839;43.206;23.550;2023-05-23T04:58:11;97059.97;;;19.69;98.53
21361;BME280;10839;43.206;23.550;2023-05-23T05:00:38;97049.91;;;19.96;95.63
21361;BME280;10839;43.206;23.550;2023-05-23T05:03:04;97050.03;;;20.33;92.79
21361;BME280;10839;43.206;23.550;2023-05-23T05:05:31;97054.59;;;21.64;83.53
21361;BME280;10839;43.206;23.550;2023-05-23T05:07:57;97041.63;;;22.11;77.20
21361;BME280;10839;43.206;23.550;2023-05-23T05:10:23;97040.00;;;22.20;76.48
21361;BME280;10839;43.206;23.550;2023-05-23T05:12:49;97033.91;;;24.23;68.50
21361;BME280;10839;43.206;23.550;2023-05-23T05:15:16;97036.75;;;26.18;60.95
21361;BME280;10839;43.206;23.550;2023-05-23T05:17:45;97039.69;;;27.14;56.42
21361;BME280;10839;43.206;23.550;2023-05-23T05:20:13;97043.22;;;28.20;51.67
21361;BME280;10839;43.206;23.550;2023-05-23T05:22:40;97042.53;;;29.08;49.21
21361;BME280;10839;43.206;23.550;2023-05-23T05:25:09;97034.84;;;29.27;46.59
21361;BME280;10839;43.206;23.550;2023-05-23T05:27:36;97032.13;;;30.53;44.91
21361;BME280;10839;43.206;23.550;2023-05-23T05:30:08;97033.06;;;31.42;41.80
21361;BME280;10839;43.206;23.550;2023-05-23T05:32:44;97027.47;;;31.59;40.37
21361;BME280;10839;43.206;23.550;2023-05-23T05:35:12;97035.25;;;31.74;40.36
21361;BME280;10839;43.206;23.550;2023-05-23T05:37:43;97029.69;;;31.74;39.84
21361;BME280;10839;43.206;23.550;2023-05-23T05:40:11;97019.34;;;32.71;37.91
21361;BME280;10839;43.206;23.550;2023-05-23T05:42:41;97027.84;;;32.54;37.97
21361;BME280;10839;43.206;23.550;2023-05-23T05:45:08;97021.66;;;32.69;37.98
21361;BME280;10839;43.206;23.550;2023-05-23T05:47:36;97027.50;;;33.17;36.82
21361;BME280;10839;43.206;23.550;2023-05-23T05:50:06;97034.78;;;32.89;37.28
21361;BME280;10839;43.206;23.550;2023-05-23T05:52:36;97043.22;;;34.23;34.63
21361;BME280;10839;43.206;23.550;2023-05-23T05:55:06;97036.81;;;34.22;35.31
21361;BME280;10839;43.206;23.550;2023-05-23T05:57:34;97039.38;;;34.03;35.33
21361;BME280;10839;43.206;23.550;2023-05-23T06:00:00;97038.28;;;32.27;37.82
21361;BME280;10839;43.206;23.550;2023-05-23T06:02:28;97042.94;;;31.86;38.79
21361;BME280;10839;43.206;23.550;2023-05-23T06:04:53;97050.59;;;31.25;40.86
21361;BME280;10839;43.206;23.550;2023-05-23T06:07:19;97045.00;;;30.40;43.20
21361;BME280;10839;43.206;23.550;2023-05-23T06:09:46;97035.38;;;29.59;45.21
21361;BME280;10839;43.206;23.550;2023-05-23T06:12:11;97048.28;;;30.51;44.96
21361;BME280;10839;43.206;23.550;2023-05-23T06:14:37;97039.97;;;31.91;41.71
21361;BME280;10839;43.206;23.550;2023-05-23T06:17:03;97040.81;;;31.74;41.58
21361;BME280;10839;43.206;23.550;2023-05-23T06:19:29;97044.13;;;32.93;39.04
21361;BME280;10839;43.206;23.550;2023-05-23T06:21:56;97053.94;;;32.70;38.27
21361;BME280;10839;43.206;23.550;2023-05-23T06:24:23;97053.19;;;32.81;38.85
21361;BME280;10839;43.206;23.550;2023-05-23T06:26:49;97051.75;;;32.55;39.41
21361;BME280;10839;43.206;23.550;2023-05-23T06:29:15;97051.47;;;32.18;40.90
21361;BME280;10839;43.206;23.550;2023-05-23T06:31:41;97046.75;;;32.10;40.59
21361;BME280;10839;43.206;23.550;2023-05-23T06:34:06;97052.81;;;32.71;39.32
21361;BME280;10839;43.206;23.550;2023-05-23T06:36:32;97041.69;;;32.12;39.94
21361;BME280;10839;43.206;23.550;2023-05-23T06:38:58;97052.63;;;32.47;40.39
21361;BME280;10839;43.206;23.550;2023-05-23T06:41:24;97048.88;;;32.13;39.48
21361;BME280;10839;43.206;23.550;2023-05-23T06:43:52;97049.91;;;32.00;39.66
21361;BME280;10839;43.206;23.550;2023-05-23T06:46:23;97045.91;;;32.18;39.20
21361;BME280;10839;43.206;23.550;2023-05-23T06:48:49;97041.56;;;32.29;38.57
21361;BME280;10839;43.206;23.550;2023-05-23T06:51:15;97043.28;;;32.13;39.63
21361;BME280;10839;43.206;23.550;2023-05-23T06:53:41;97048.75;;;31.55;40.05
21361;BME280;10839;43.206;23.550;2023-05-23T06:56:07;97038.31;;;31.18;41.39
21361;BME280;10839;43.206;23.550;2023-05-23T06:58:45;97038.66;;;31.88;41.21
21361;BME280;10839;43.206;23.550;2023-05-23T07:01:12;97037.44;;;32.06;40.55
21361;BME280;10839;43.206;23.550;2023-05-23T07:03:42;97040.13;;;32.23;39.34
21361;BME280;10839;43.206;23.550;2023-05-23T07:06:11;97033.41;;;32.24;40.12
21361;BME280;10839;43.206;23.550;2023-05-23T07:08:39;97037.50;;;31.89;41.10
21361;BME280;10839;43.206;23.550;2023-05-23T07:11:05;97034.41;;;31.82;40.90
21361;BME280;10839;43.206;23.550;2023-05-23T07:13:41;97027.34;;;32.52;39.53
21361;BME280;10839;43.206;23.550;2023-05-23T07:16:11;97032.00;;;31.72;38.89
21361;BME280;10839;43.206;23.550;2023-05-23T07:18:46;97030.53;;;32.12;38.82
21361;BME280;10839;43.206;23.550;2023-05-23T07:21:12;97020.34;;;32.16;38.77
21361;BME280;10839;43.206;23.550;2023-05-23T07:23:39;97021.69;;;32.10;38.33
21361;BME280;10839;43.206;23.550;2023-05-23T07:26:06;97019.38;;;32.41;38.63
21361;BME280;10839;43.206;23.550;2023-05-23T07:28:48;97016.13;;;32.39;38.94
21361;BME280;10839;43.206;23.550;2023-05-23T07:31:15;97014.47;;;32.09;38.33
21361;BME280;10839;43.206;23.550;2023-05-23T07:33:42;97018.78;;;32.27;37.90
21361;BME280;10839;43.206;23.550;2023-05-23T07:36:13;97013.09;;;31.95;38.77
21361;BME280;10839;43.206;23.550;2023-05-23T07:38:39;97024.38;;;31.98;38.58
21361;BME280;10839;43.206;23.550;2023-05-23T07:41:05;97018.59;;;32.32;38.66
21361;BME280;10839;43.206;23.550;2023-05-23T07:43:31;97021.19;;;32.37;37.98
21361;BME280;10839;43.206;23.550;2023-05-23T07:45:56;97021.19;;;32.37;37.24
21361;BME280;10839;43.206;23.550;2023-05-23T07:48:22;97019.94;;;31.51;38.82
21361;BME280;10839;43.206;23.550;2023-05-23T07:50:48;97017.72;;;31.82;39.27
21361;BME280;10839;43.206;23.550;2023-05-23T07:53:20;97013.63;;;32.47;39.20
21361;BME280;10839;43.206;23.550;2023-05-23T07:55:48;97018.66;;;32.74;37.31
21361;BME280;10839;43.206;23.550;2023-05-23T07:58:15;97016.22;;;32.52;36.96
21361;BME280;10839;43.206;23.550;2023-05-23T08:00:41;97013.75;;;32.50;37.12
21361;BME280;10839;43.206;23.550;2023-05-23T08:03:21;97007.03;;;31.93;37.44
21361;BME280;10839;43.206;23.550;2023-05-23T08:05:59;97015.72;;;31.45;38.13
21361;BME280;10839;43.206;23.550;2023-05-23T08:08:25;97003.69;;;31.70;38.37
21361;BME280;10839;43.206;23.550;2023-05-23T08:10:52;97000.47;;;31.97;38.62
21361;BME280;10839;43.206;23.550;2023-05-23T08:13:23;97015.00;;;31.65;38.77
21361;BME280;10839;43.206;23.550;2023-05-23T08:16:09;97011.34;;;31.73;37.03
21361;BME280;10839;43.206;23.550;2023-05-23T08:18:36;97007.38;;;31.91;36.79
21361;BME280;10839;43.206;23.550;2023-05-23T08:21:02;97007.47;;;32.03;37.05
21361;BME280;10839;43.206;23.550;2023-05-23T08:23:29;97013.38;;;31.64;37.14
21361;BME280;10839;43.206;23.550;2023-05-23T08:25:55;97009.47;;;32.23;35.83
21361;BME280;10839;43.206;23.550;2023-05-23T08:28:22;97013.00;;;32.41;35.79
21361;BME280;10839;43.206;23.550;2023-05-23T08:30:52;97006.47;;;32.58;35.48
21361;BME280;10839;43.206;23.550;2023-05-23T08:33:19;97003.97;;;32.65;35.82
21361;BME280;10839;43.206;23.550;2023-05-23T08:35:47;97004.56;;;32.50;34.44
21361;BME280;10839;43.206;23.550;2023-05-23T08:38:16;97005.88;;;32.73;35.12
21361;BME280;10839;43.206;23.550;2023-05-23T08:40:59;97007.66;;;32.98;34.86
21361;BME280;10839;43.206;23.550;2023-05-23T08:43:27;97002.84;;;32.66;35.96
21361;BME280;10839;43.206;23.550;2023-05-23T08:45:53;97003.28;;;32.88;35.93
21361;BME280;10839;43.206;23.550;2023-05-23T08:48:21;96998.66;;;32.72;35.11
21361;BME280;10839;43.206;23.550;2023-05-23T08:50:52;96999.69;;;32.17;35.10
21361;BME280;10839;43.206;23.550;2023-05-23T08:53:22;96996.50;;;32.57;34.31
21361;BME280;10839;43.206;23.550;2023-05-23T08:55:59;96986.06;;;31.95;35.58
21361;BME280;10839;43.206;23.550;2023-05-23T08:58:34;96999.84;;;31.83;35.02
21361;BME280;10839;43.206;23.550;2023-05-23T09:01:01;96983.09;;;32.21;35.55
21361;BME280;10839;43.206;23.550;2023-05-23T09:03:27;96994.72;;;31.56;34.93
21361;BME280;10839;43.206;23.550;2023-05-23T09:06:13;96999.63;;;32.26;34.62
21361;BME280;10839;43.206;23.550;2023-05-23T09:08:41;96997.75;;;32.09;34.83
21361;BME280;10839;43.206;23.550;2023-05-23T09:11:07;96984.78;;;32.42;33.58
21361;BME280;10839;43.206;23.550;2023-05-23T09:13:37;96997.91;;;31.75;35.55
21361;BME280;10839;43.206;23.550;2023-05-23T09:16:09;96992.72;;;32.03;35.95
21361;BME280;10839;43.206;23.550;2023-05-23T09:18:43;96999.69;;;31.25;35.96
21361;BME280;10839;43.206;23.550;2023-05-23T09:21:12;97002.03;;;30.38;36.00
21361;BME280;10839;43.206;23.550;2023-05-23T09:23:48;96996.25;;;31.19;35.91
21361;BME280;10839;43.206;23.550;2023-05-23T09:26:15;96991.41;;;30.74;35.58
21361;BME280;10839;43.206;23.550;2023-05-23T09:28:42;96985.66;;;31.13;33.83
21361;BME280;10839;43.206;23.550;2023-05-23T09:31:09;96986.00;;;30.35;35.58
21361;BME280;10839;43.206;23.550;2023-05-23T09:36:09;96982.31;;;30.00;37.41
21361;BME280;10839;43.206;23.550;2023-05-23T09:38:41;96985.31;;;29.73;37.47
21361;BME280;10839;43.206;23.550;2023-05-23T09:41:08;96990.63;;;29.91;37.44
21361;BME280;10839;43.206;23.550;2023-05-23T09:44:10;96983.94;;;29.92;36.81
21361;BME280;10839;43.206;23.550;2023-05-23T09:46:29;96978.84;;;29.77;37.63
21361;BME280;10839;43.206;23.550;2023-05-23T09:48:55;96979.13;;;29.67;37.55
21361;BME280;10839;43.206;23.550;2023-05-23T09:51:22;96976.44;;;30.01;36.31
21361;BME280;10839;43.206;23.550;2023-05-23T09:53:49;96972.22;;;30.13;36.14
21361;BME280;10839;43.206;23.550;2023-05-23T09:56:16;96968.97;;;29.63;35.87
21361;BME280;10839;43.206;23.550;2023-05-23T09:58:46;96978.34;;;27.99;40.28
21361;BME280;10839;43.206;23.550;2023-05-23T10:01:13;96976.16;;;28.45;39.01
21361;BME280;10839;43.206;23.550;2023-05-23T10:03:49;96964.56;;;29.23;38.20
21361;BME280;10839;43.206;23.550;2023-05-23T10:08:56;96965.13;;;28.89;37.57
21361;BME280;10839;43.206;23.550;2023-05-23T10:14:08;96963.34;;;27.18;42.33
21361;BME280;10839;43.206;23.550;2023-05-23T10:16:41;96963.91;;;26.88;43.58
21361;BME280;10839;43.206;23.550;2023-05-23T10:21:43;96957.25;;;29.35;39.63
21361;BME280;10839;43.206;23.550;2023-05-23T10:24:13;96951.44;;;29.45;39.01
21361;BME280;10839;43.206;23.550;2023-05-23T10:26:39;96958.94;;;28.48;39.09
21361;BME280;10839;43.206;23.550;2023-05-23T10:29:06;96949.94;;;29.39;37.30
21361;BME280;10839;43.206;23.550;2023-05-23T10:31:32;96957.78;;;29.85;36.63
21361;BME280;10839;43.206;23.550;2023-05-23T10:37:11;96933.28;;;27.57;39.13
21361;BME280;10839;43.206;23.550;2023-05-23T10:39:48;96937.03;;;27.07;40.69
21361;BME280;10839;43.206;23.550;2023-05-23T10:44:52;96943.75;;;28.45;38.01
21361;BME280;10839;43.206;23.550;2023-05-23T10:47:38;96950.69;;;26.53;41.40
21361;BME280;10839;43.206;23.550;2023-05-23T10:50:04;96942.78;;;27.24;40.24
21361;BME280;10839;43.206;23.550;2023-05-23T10:52:38;96931.03;;;27.59;40.10
21361;BME280;10839;43.206;23.550;2023-05-23T10:55:12;96948.59;;;27.09;41.11
21361;BME280;10839;43.206;23.550;2023-05-23T10:57:39;96943.28;;;26.67;41.83
21361;BME280;10839;43.206;23.550;2023-05-23T11:00:15;96934.25;;;27.07;41.15
21361;BME280;10839;43.206;23.550;2023-05-23T11:02:55;96941.47;;;27.90;40.72
21361;BME280;10839;43.206;23.550;2023-05-23T11:05:27;96934.06;;;27.99;40.45
21361;BME280;10839;43.206;23.550;2023-05-23T11:08:10;96939.59;;;27.99;40.45
21361;BME280;10839;43.206;23.550;2023-05-23T11:10:53;96936.06;;;27.30;39.96
21361;BME280;10839;43.206;23.550;2023-05-23T11:13:21;96940.72;;;26.71;39.86
21361;BME280;10839;43.206;23.550;2023-05-23T11:15:48;96924.63;;;26.91;39.38
21361;BME280;10839;43.206;23.550;2023-05-23T11:18:26;96926.75;;;26.62;38.32
21361;BME280;10839;43.206;23.550;2023-05-23T11:20:53;96909.59;;;26.65;38.61
21361;BME280;10839;43.206;23.550;2023-05-23T11:23:20;96922.50;;;25.82;41.72
21361;BME280;10839;43.206;23.550;2023-05-23T11:25:51;96924.66;;;25.43;44.39
21361;BME280;10839;43.206;23.550;2023-05-23T11:28:18;96909.69;;;24.44;46.25
21361;BME280;10839;43.206;23.550;2023-05-23T11:30:48;96921.72;;;24.87;47.56
21361;BME280;10839;43.206;23.550;2023-05-23T11:33:16;96923.53;;;24.34;49.08
21361;BME280;10839;43.206;23.550;2023-05-23T11:35:46;96932.75;;;24.20;49.25
21361;BME280;10839;43.206;23.550;2023-05-23T11:38:16;96925.22;;;24.92;47.94
21361;BME280;10839;43.206;23.550;2023-05-23T11:40:44;96914.59;;;25.57;45.93
21361;BME280;10839;43.206;23.550;2023-05-23T11:43:15;96927.69;;;25.17;46.38
21361;BME280;10839;43.206;23.550;2023-05-23T11:45:41;96911.63;;;25.72;43.47
21361;BME280;10839;43.206;23.550;2023-05-23T11:48:09;96909.97;;;25.71;43.84
21361;BME280;10839;43.206;23.550;2023-05-23T11:53:13;96907.69;;;27.11;41.29
21361;BME280;10839;43.206;23.550;2023-05-23T11:55:50;96918.03;;;25.86;40.98
21361;BME280;10839;43.206;23.550;2023-05-23T11:58:20;96913.56;;;25.00;41.89
21361;BME280;10839;43.206;23.550;2023-05-23T12:00:46;96909.06;;;25.09;42.48
21361;BME280;10839;43.206;23.550;2023-05-23T12:03:12;96898.03;;;25.94;41.17
21361;BME280;10839;43.206;23.550;2023-05-23T12:05:38;96898.25;;;25.79;41.93
21361;BME280;10839;43.206;23.550;2023-05-23T12:08:04;96901.44;;;25.49;42.93
21361;BME280;10839;43.206;23.550;2023-05-23T12:10:30;96898.75;;;25.44;43.87
21361;BME280;10839;43.206;23.550;2023-05-23T12:12:56;96897.59;;;26.24;41.95
21361;BME280;10839;43.206;23.550;2023-05-23T12:15:25;96887.28;;;26.48;41.52
21361;BME280;10839;43.206;23.550;2023-05-23T12:17:54;96886.88;;;26.73;42.02
21361;BME280;10839;43.206;23.550;2023-05-23T12:20:21;96892.25;;;26.14;39.18
21361;BME280;10839;43.206;23.550;2023-05-23T12:22:47;96890.97;;;25.88;39.28
21361;BME280;10839;43.206;23.550;2023-05-23T12:25:13;96891.03;;;26.71;39.35
21361;BME280;10839;43.206;23.550;2023-05-23T12:27:40;96887.63;;;25.91;37.91
21361;BME280;10839;43.206;23.550;2023-05-23T12:32:40;96879.78;;;25.61;38.53
21361;BME280;10839;43.206;23.550;2023-05-23T12:35:08;96881.41;;;25.43;40.45
21361;BME280;10839;43.206;23.550;2023-05-23T12:37:38;96874.56;;;26.47;39.77
21361;BME280;10839;43.206;23.550;2023-05-23T12:40:12;96880.44;;;25.53;40.98
21361;BME280;10839;43.206;23.550;2023-05-23T12:42:52;96865.94;;;25.23;41.71
21361;BME280;10839;43.206;23.550;2023-05-23T12:45:22;96864.16;;;25.75;41.44
21361;BME280;10839;43.206;23.550;2023-05-23T12:47:49;96854.72;;;26.31;40.20
21361;BME280;10839;43.206;23.550;2023-05-23T12:50:15;96849.44;;;26.94;39.20
21361;BME280;10839;43.206;23.550;2023-05-23T12:52:41;96842.19;;;26.98;38.02
21361;BME280;10839;43.206;23.550;2023-05-23T12:55:07;96844.47;;;26.32;39.21
21361;BME280;10839;43.206;23.550;2023-05-23T12:57:34;96848.72;;;26.11;38.65
21361;BME280;10839;43.206;23.550;2023-05-23T13:00:00;96852.75;;;25.63;39.86
21361;BME280;10839;43.206;23.550;2023-05-23T13:02:27;96848.13;;;25.40;40.47
21361;BME280;10839;43.206;23.550;2023-05-23T13:04:53;96856.09;;;25.17;40.51
21361;BME280;10839;43.206;23.550;2023-05-23T13:07:19;96854.94;;;24.76;41.39
21361;BME280;10839;43.206;23.550;2023-05-23T13:09:45;96838.88;;;24.83;41.03
21361;BME280;10839;43.206;23.550;2023-05-23T13:12:11;96836.19;;;24.78;40.17
21361;BME280;10839;43.206;23.550;2023-05-23T13:14:37;96840.97;;;24.68;39.94
21361;BME280;10839;43.206;23.550;2023-05-23T13:17:03;96838.28;;;24.86;37.82
21361;BME280;10839;43.206;23.550;2023-05-23T13:19:29;96832.03;;;25.47;38.10
21361;BME280;10839;43.206;23.550;2023-05-23T13:21:55;96832.75;;;25.34;38.10